DAL825 KATL-KLAS
Flight info
| Callsign | DAL825 |
|---|---|
| Flight time | N/A |
| Altitude | 28000 |
| Route | NASSA2 YAALL J14 LIT MLC PNH/N0445F300 GUP HAHAA RKSTR4 |
| Aircraft | A321/M-SDE3FGHIRWY/LB1 |
Departure
| Time | N/A |
|---|---|
| Airport | Hartsfield Jackson Atlanta International Airport (KATL) |
Arrival
| Time | 2026-05-08 03:58 |
|---|---|
| Airport | Harry Reid International Airport (KLAS) |
| Time | Latitude | Longitude | Altitude | Speed | Heading |
|---|---|---|---|---|---|
| 2026-05-08 03:31 | 35.52706 | -112.43164 | 27950 ft | 476 kts | 282° |
| 2026-05-08 03:32 | 35.53195 | -112.47185 | 27926 ft | 476 kts | 282° |
| 2026-05-08 03:32 | 35.53682 | -112.51207 | 27927 ft | 476 kts | 282° |
| 2026-05-08 03:32 | 35.54168 | -112.55221 | 27933 ft | 476 kts | 282° |
| 2026-05-08 03:32 | 35.54648 | -112.59185 | 27931 ft | 475 kts | 282° |
| 2026-05-08 03:33 | 35.55133 | -112.63195 | 27932 ft | 475 kts | 282° |
| 2026-05-08 03:33 | 35.55614 | -112.67208 | 27933 ft | 475 kts | 282° |
| 2026-05-08 03:33 | 35.56092 | -112.71211 | 27932 ft | 475 kts | 282° |
| 2026-05-08 03:33 | 35.56569 | -112.75221 | 27931 ft | 474 kts | 282° |
| 2026-05-08 03:34 | 35.57046 | -112.79233 | 27917 ft | 474 kts | 282° |
| 2026-05-08 03:34 | 35.57523 | -112.83238 | 27920 ft | 474 kts | 282° |
| 2026-05-08 03:34 | 35.57999 | -112.87246 | 27917 ft | 474 kts | 282° |
| 2026-05-08 03:34 | 35.58473 | -112.91256 | 27917 ft | 474 kts | 282° |
| 2026-05-08 03:35 | 35.58945 | -112.95261 | 27920 ft | 474 kts | 282° |
| 2026-05-08 03:35 | 35.59417 | -112.99275 | 27912 ft | 474 kts | 282° |
| 2026-05-08 03:35 | 35.59879 | -113.03229 | 27932 ft | 458 kts | 282° |
| 2026-05-08 03:35 | 35.60317 | -113.07023 | 27932 ft | 441 kts | 282° |
| 2026-05-08 03:36 | 35.60741 | -113.10713 | 27909 ft | 433 kts | 282° |
| 2026-05-08 03:36 | 35.61163 | -113.14362 | 27926 ft | 431 kts | 282° |
| 2026-05-08 03:36 | 35.61587 | -113.18008 | 27925 ft | 430 kts | 282° |
| 2026-05-08 03:36 | 35.62006 | -113.21618 | 27700 ft | 423 kts | 282° |
| 2026-05-08 03:37 | 35.62417 | -113.25170 | 27220 ft | 418 kts | 282° |
| 2026-05-08 03:37 | 35.62825 | -113.28698 | 26715 ft | 415 kts | 282° |
| 2026-05-08 03:37 | 35.63229 | -113.32187 | 26250 ft | 411 kts | 282° |
| 2026-05-08 03:37 | 35.63628 | -113.35654 | 25771 ft | 407 kts | 281° |
| 2026-05-08 03:38 | 35.64019 | -113.39087 | 25311 ft | 404 kts | 281° |
| 2026-05-08 03:38 | 35.64404 | -113.42492 | 24857 ft | 400 kts | 281° |
| 2026-05-08 03:38 | 35.64783 | -113.45865 | 24415 ft | 397 kts | 281° |
| 2026-05-08 03:38 | 35.65157 | -113.49208 | 23973 ft | 393 kts | 281° |
| 2026-05-08 03:39 | 35.65577 | -113.52472 | 23542 ft | 389 kts | 283° |
| 2026-05-08 03:39 | 35.66084 | -113.55725 | 23074 ft | 386 kts | 285° |
| 2026-05-08 03:39 | 35.66635 | -113.58934 | 22658 ft | 382 kts | 285° |
| 2026-05-08 03:39 | 35.67197 | -113.62120 | 22248 ft | 379 kts | 285° |
| 2026-05-08 03:40 | 35.67750 | -113.65278 | 21826 ft | 376 kts | 285° |
| 2026-05-08 03:40 | 35.68286 | -113.68418 | 21425 ft | 374 kts | 285° |
| 2026-05-08 03:40 | 35.68805 | -113.71539 | 21019 ft | 371 kts | 285° |
| 2026-05-08 03:40 | 35.69311 | -113.74635 | 20621 ft | 368 kts | 285° |
| 2026-05-08 03:41 | 35.69810 | -113.77720 | 20210 ft | 367 kts | 284° |
| 2026-05-08 03:41 | 35.70303 | -113.80787 | 19816 ft | 365 kts | 284° |
| 2026-05-08 03:41 | 35.70795 | -113.83835 | 19423 ft | 362 kts | 284° |
| 2026-05-08 03:41 | 35.71286 | -113.86870 | 19033 ft | 360 kts | 284° |
| 2026-05-08 03:42 | 35.71772 | -113.89877 | 18641 ft | 358 kts | 284° |
| 2026-05-08 03:42 | 35.72259 | -113.92873 | 18247 ft | 356 kts | 284° |
| 2026-05-08 03:42 | 35.72741 | -113.95848 | 17844 ft | 352 kts | 284° |
| 2026-05-08 03:42 | 35.73218 | -113.98803 | 17522 ft | 353 kts | 284° |
| 2026-05-08 03:43 | 35.73693 | -114.01748 | 17136 ft | 350 kts | 284° |
| 2026-05-08 03:43 | 35.74162 | -114.04678 | 16755 ft | 348 kts | 284° |
| 2026-05-08 03:43 | 35.74626 | -114.07584 | 16373 ft | 345 kts | 284° |
| 2026-05-08 03:43 | 35.75079 | -114.10438 | 16077 ft | 340 kts | 284° |
| 2026-05-08 03:44 | 35.75522 | -114.13248 | 15948 ft | 329 kts | 284° |
| 2026-05-08 03:44 | 35.76147 | -114.15895 | 15700 ft | 317 kts | 297° |
| 2026-05-08 03:44 | 35.77162 | -114.18271 | 15504 ft | 311 kts | 302° |
| 2026-05-08 03:44 | 35.78200 | -114.20598 | 15204 ft | 310 kts | 302° |
| 2026-05-08 03:45 | 35.79228 | -114.22925 | 14906 ft | 308 kts | 302° |
| 2026-05-08 03:45 | 35.80247 | -114.25237 | 14602 ft | 306 kts | 302° |
| 2026-05-08 03:45 | 35.81259 | -114.27538 | 14293 ft | 305 kts | 302° |
| 2026-05-08 03:45 | 35.82271 | -114.29835 | 14004 ft | 304 kts | 302° |
| 2026-05-08 03:46 | 35.83276 | -114.32117 | 13701 ft | 302 kts | 301° |
| 2026-05-08 03:46 | 35.84389 | -114.34287 | 13388 ft | 297 kts | 311° |
| 2026-05-08 03:46 | 35.85660 | -114.36301 | 13091 ft | 298 kts | 310° |
| 2026-05-08 03:46 | 35.86923 | -114.38317 | 12800 ft | 297 kts | 310° |
| 2026-05-08 03:47 | 35.88185 | -114.40334 | 12500 ft | 298 kts | 310° |
| 2026-05-08 03:47 | 35.89448 | -114.42350 | 12198 ft | 297 kts | 309° |
| 2026-05-08 03:47 | 35.90706 | -114.44364 | 11931 ft | 295 kts | 309° |
| 2026-05-08 03:47 | 35.91533 | -114.45693 | 11747 ft | 295 kts | 309° |
| 2026-05-08 03:48 | 35.92779 | -114.47695 | 11462 ft | 293 kts | 309° |
| 2026-05-08 03:48 | 35.94017 | -114.49687 | 11186 ft | 292 kts | 309° |
| 2026-05-08 03:48 | 35.95252 | -114.51676 | 10903 ft | 290 kts | 309° |
| 2026-05-08 03:48 | 35.96472 | -114.53648 | 10630 ft | 289 kts | 309° |
| 2026-05-08 03:49 | 35.97688 | -114.55623 | 10358 ft | 288 kts | 309° |
| 2026-05-08 03:49 | 35.99190 | -114.58064 | 10016 ft | 286 kts | 309° |
| 2026-05-08 03:49 | 36.00388 | -114.60013 | 9743 ft | 285 kts | 308° |
| 2026-05-08 03:49 | 36.01581 | -114.61952 | 9444 ft | 280 kts | 308° |
| 2026-05-08 03:50 | 36.02721 | -114.63802 | 9187 ft | 269 kts | 307° |
| 2026-05-08 03:50 | 36.03817 | -114.65612 | 8960 ft | 256 kts | 302° |
| 2026-05-08 03:50 | 36.04714 | -114.67435 | 8616 ft | 242 kts | 301° |
| 2026-05-08 03:50 | 36.05573 | -114.69186 | 8238 ft | 235 kts | 301° |
| 2026-05-08 03:51 | 36.06414 | -114.70898 | 8012 ft | 231 kts | 301° |
| 2026-05-08 03:51 | 36.07121 | -114.72685 | 7889 ft | 232 kts | 287° |
| 2026-05-08 03:51 | 36.07326 | -114.74657 | 7662 ft | 231 kts | 270° |
| 2026-05-08 03:51 | 36.07328 | -114.76642 | 7394 ft | 230 kts | 270° |
| 2026-05-08 03:52 | 36.07331 | -114.78615 | 7112 ft | 229 kts | 270° |
| 2026-05-08 03:52 | 36.07335 | -114.80553 | 6836 ft | 227 kts | 270° |
| 2026-05-08 03:52 | 36.07340 | -114.82499 | 6554 ft | 224 kts | 270° |
| 2026-05-08 03:52 | 36.07344 | -114.84391 | 6281 ft | 215 kts | 270° |
| 2026-05-08 03:53 | 36.07347 | -114.86212 | 6006 ft | 207 kts | 269° |
| 2026-05-08 03:53 | 36.07350 | -114.87964 | 5746 ft | 201 kts | 269° |
| 2026-05-08 03:53 | 36.07353 | -114.89650 | 5510 ft | 190 kts | 269° |
| 2026-05-08 03:53 | 36.07355 | -114.91233 | 5270 ft | 183 kts | 268° |
| 2026-05-08 03:54 | 36.07357 | -114.92786 | 5039 ft | 179 kts | 269° |
| 2026-05-08 03:54 | 36.07359 | -114.94323 | 4812 ft | 179 kts | 268° |
| 2026-05-08 03:54 | 36.07360 | -114.95864 | 4588 ft | 179 kts | 268° |
| 2026-05-08 03:54 | 36.07362 | -114.97403 | 4361 ft | 179 kts | 269° |
| 2026-05-08 03:55 | 36.07363 | -114.98947 | 4136 ft | 180 kts | 268° |
| 2026-05-08 03:55 | 36.07364 | -115.00495 | 3911 ft | 180 kts | 268° |
| 2026-05-08 03:55 | 36.07365 | -115.02034 | 3689 ft | 174 kts | 269° |
| 2026-05-08 03:55 | 36.07366 | -115.03464 | 3498 ft | 162 kts | 269° |
| 2026-05-08 03:56 | 36.07366 | -115.04808 | 3301 ft | 153 kts | 269° |
| 2026-05-08 03:56 | 36.07366 | -115.06107 | 3125 ft | 150 kts | 267° |
| 2026-05-08 03:56 | 36.07366 | -115.07394 | 2925 ft | 152 kts | 265° |
| 2026-05-08 03:56 | 36.07366 | -115.08716 | 2734 ft | 154 kts | 267° |
| 2026-05-08 03:57 | 36.07368 | -115.10038 | 2509 ft | 153 kts | 266° |
| 2026-05-08 03:57 | 36.07369 | -115.11336 | 2315 ft | 152 kts | 265° |
| 2026-05-08 03:57 | 36.07365 | -115.12643 | 2130 ft | 151 kts | 268° |
| 2026-05-08 03:57 | 36.07370 | -115.13878 | 2097 ft | 128 kts | 268° |
| 2026-05-08 03:58 | 36.07362 | -115.14704 | 2122 ft | 69 kts | 270° |
| 2026-05-08 03:58 | 36.07365 | -115.15092 | 2129 ft | 28 kts | 272° |
| 2026-05-08 03:58 | 36.07389 | -115.15304 | 2135 ft | 22 kts | 284° |
| 2026-05-08 03:58 | 36.07446 | -115.15448 | 2141 ft | 17 kts | 301° |
| 2026-05-08 03:59 | 36.07499 | -115.15565 | 2143 ft | 14 kts | 303° |
| 2026-05-08 03:59 | 36.07557 | -115.15643 | 2145 ft | 11 kts | 315° |
| 2026-05-08 03:59 | 36.07611 | -115.15706 | 2147 ft | 14 kts | 316° |
| 2026-05-08 03:59 | 36.07702 | -115.15808 | 2148 ft | 19 kts | 324° |
| 2026-05-08 04:00 | 36.07799 | -115.15785 | 2148 ft | 15 kts | 65° |
| 2026-05-08 04:00 | 36.07802 | -115.15648 | 2144 ft | 17 kts | 90° |
| 2026-05-08 04:00 | 36.07806 | -115.15506 | 2142 ft | 16 kts | 86° |
| 2026-05-08 04:00 | 36.07811 | -115.15368 | 2140 ft | 16 kts | 95° |
| 2026-05-08 04:01 | 36.07805 | -115.15215 | 2133 ft | 20 kts | 90° |
| 2026-05-08 04:01 | 36.07802 | -115.15035 | 2127 ft | 22 kts | 94° |
| 2026-05-08 04:01 | 36.07788 | -115.14844 | 2121 ft | 24 kts | 96° |
| 2026-05-08 04:01 | 36.07774 | -115.14641 | 2110 ft | 23 kts | 93° |
| 2026-05-08 04:02 | 36.07759 | -115.14437 | 2105 ft | 24 kts | 96° |
| 2026-05-08 04:02 | 36.07753 | -115.14239 | 2099 ft | 21 kts | 90° |
| 2026-05-08 04:02 | 36.07786 | -115.14157 | 2095 ft | 16 kts | 22° |
| 2026-05-08 04:02 | 36.07909 | -115.14105 | 2094 ft | 14 kts | 77° |
| 2026-05-08 04:03 | 36.07910 | -115.13983 | 2093 ft | 14 kts | 77° |
| 2026-05-08 04:03 | 36.07990 | -115.13957 | 2092 ft | 0 kts | 352° |